sensor_id;sensor_type;location;lat;lon;timestamp;temperature;humidity
33580;DHT22;19909;43.644;-79.438;2023-07-20T00:02:16;21.40;62.00
33580;DHT22;19909;43.644;-79.438;2023-07-20T00:04:43;21.40;61.40
33580;DHT22;19909;43.644;-79.438;2023-07-20T00:07:09;21.30;61.80
33580;DHT22;19909;43.644;-79.438;2023-07-20T00:09:35;21.30;62.60
33580;DHT22;19909;43.644;-79.438;2023-07-20T00:12:01;21.30;63.60
33580;DHT22;19909;43.644;-79.438;2023-07-20T00:14:27;21.30;64.10
33580;DHT22;19909;43.644;-79.438;2023-07-20T00:16:55;21.30;64.10
33580;DHT22;19909;43.644;-79.438;2023-07-20T00:19:28;21.30;63.20
33580;DHT22;19909;43.644;-79.438;2023-07-20T00:21:55;21.30;62.70
33580;DHT22;19909;43.644;-79.438;2023-07-20T00:24:21;21.30;62.10
33580;DHT22;19909;43.644;-79.438;2023-07-20T00:26:47;21.30;61.80
33580;DHT22;19909;43.644;-79.438;2023-07-20T00:29:16;21.30;62.10
33580;DHT22;19909;43.644;-79.438;2023-07-20T00:31:42;21.20;63.80
33580;DHT22;19909;43.644;-79.438;2023-07-20T00:34:09;21.20;63.90
33580;DHT22;19909;43.644;-79.438;2023-07-20T00:36:35;21.30;64.20
33580;DHT22;19909;43.644;-79.438;2023-07-20T00:39:02;21.30;64.40
33580;DHT22;19909;43.644;-79.438;2023-07-20T00:41:29;21.30;63.70
33580;DHT22;19909;43.644;-79.438;2023-07-20T00:43:55;21.30;62.80
33580;DHT22;19909;43.644;-79.438;2023-07-20T00:46:23;21.30;62.10
33580;DHT22;19909;43.644;-79.438;2023-07-20T00:48:50;21.30;61.40
33580;DHT22;19909;43.644;-79.438;2023-07-20T00:51:17;21.30;61.00
33580;DHT22;19909;43.644;-79.438;2023-07-20T00:53:43;21.20;61.60
33580;DHT22;19909;43.644;-79.438;2023-07-20T00:56:10;21.20;62.30
33580;DHT22;19909;43.644;-79.438;2023-07-20T00:58:38;21.20;63.10
33580;DHT22;19909;43.644;-79.438;2023-07-20T01:01:04;21.20;63.10
33580;DHT22;19909;43.644;-79.438;2023-07-20T01:03:30;21.20;63.70
33580;DHT22;19909;43.644;-79.438;2023-07-20T01:06:29;21.20;62.60
33580;DHT22;19909;43.644;-79.438;2023-07-20T01:09:18;21.20;61.80
33580;DHT22;19909;43.644;-79.438;2023-07-20T01:12:16;21.20;61.00
33580;DHT22;19909;43.644;-79.438;2023-07-20T01:14:45;21.10;60.30
33580;DHT22;19909;43.644;-79.438;2023-07-20T01:17:11;21.10;61.40
33580;DHT22;19909;43.644;-79.438;2023-07-20T01:19:38;21.00;62.00
33580;DHT22;19909;43.644;-79.438;2023-07-20T01:23:18;21.00;62.50
33580;DHT22;19909;43.644;-79.438;2023-07-20T01:28:22;21.10;62.80
33580;DHT22;19909;43.644;-79.438;2023-07-20T01:33:47;21.10;60.90
33580;DHT22;19909;43.644;-79.438;2023-07-20T01:36:14;21.10;60.40
33580;DHT22;19909;43.644;-79.438;2023-07-20T01:38:42;21.00;60.60
33580;DHT22;19909;43.644;-79.438;2023-07-20T01:41:08;21.00;61.50
33580;DHT22;19909;43.644;-79.438;2023-07-20T01:43:35;20.90;62.20
33580;DHT22;19909;43.644;-79.438;2023-07-20T01:46:01;21.00;62.40
33580;DHT22;19909;43.644;-79.438;2023-07-20T01:48:27;21.00;62.60
33580;DHT22;19909;43.644;-79.438;2023-07-20T01:50:53;21.00;62.60
33580;DHT22;19909;43.644;-79.438;2023-07-20T01:53:20;21.00;61.40
33580;DHT22;19909;43.644;-79.438;2023-07-20T01:55:47;21.00;60.70
33580;DHT22;19909;43.644;-79.438;2023-07-20T01:58:13;21.00;60.10
33580;DHT22;19909;43.644;-79.438;2023-07-20T02:00:39;21.00;60.30
33580;DHT22;19909;43.644;-79.438;2023-07-20T02:03:05;21.00;61.30
33580;DHT22;19909;43.644;-79.438;2023-07-20T02:05:32;20.90;61.80
33580;DHT22;19909;43.644;-79.438;2023-07-20T02:07:58;20.90;62.20
33580;DHT22;19909;43.644;-79.438;2023-07-20T02:10:24;20.90;62.20
33580;DHT22;19909;43.644;-79.438;2023-07-20T02:12:50;21.00;62.90
33580;DHT22;19909;43.644;-79.438;2023-07-20T02:15:17;21.00;63.20
33580;DHT22;19909;43.644;-79.438;2023-07-20T02:17:44;21.00;61.70
33580;DHT22;19909;43.644;-79.438;2023-07-20T02:20:11;21.00;60.80
33580;DHT22;19909;43.644;-79.438;2023-07-20T02:22:38;21.00;60.10
33580;DHT22;19909;43.644;-79.438;2023-07-20T02:25:05;21.00;60.90
33580;DHT22;19909;43.644;-79.438;2023-07-20T02:27:31;20.90;61.80
33580;DHT22;19909;43.644;-79.438;2023-07-20T02:29:57;20.90;62.60
33580;DHT22;19909;43.644;-79.438;2023-07-20T02:32:23;20.90;62.50
33580;DHT22;19909;43.644;-79.438;2023-07-20T02:34:49;21.00;62.80
33580;DHT22;19909;43.644;-79.438;2023-07-20T02:37:16;21.00;63.40
33580;DHT22;19909;43.644;-79.438;2023-07-20T02:39:43;21.00;63.60
33580;DHT22;19909;43.644;-79.438;2023-07-20T02:42:09;21.10;63.90
33580;DHT22;19909;43.644;-79.438;2023-07-20T02:44:35;21.10;63.90
33580;DHT22;19909;43.644;-79.438;2023-07-20T02:47:01;21.10;62.60
33580;DHT22;19909;43.644;-79.438;2023-07-20T02:49:28;21.10;61.50
33580;DHT22;19909;43.644;-79.438;2023-07-20T02:51:54;21.10;60.90
33580;DHT22;19909;43.644;-79.438;2023-07-20T02:54:21;21.00;61.40
33580;DHT22;19909;43.644;-79.438;2023-07-20T02:56:47;21.00;62.40
33580;DHT22;19909;43.644;-79.438;2023-07-20T02:59:14;21.00;63.00
33580;DHT22;19909;43.644;-79.438;2023-07-20T03:01:40;21.00;63.20
33580;DHT22;19909;43.644;-79.438;2023-07-20T03:04:08;21.00;63.50
33580;DHT22;19909;43.644;-79.438;2023-07-20T03:06:36;21.10;64.00
33580;DHT22;19909;43.644;-79.438;2023-07-20T03:09:03;21.10;64.00
33580;DHT22;19909;43.644;-79.438;2023-07-20T03:11:30;21.10;64.20
33580;DHT22;19909;43.644;-79.438;2023-07-20T03:13:56;21.10;64.20
33580;DHT22;19909;43.644;-79.438;2023-07-20T03:16:23;21.20;64.50
33580;DHT22;19909;43.644;-79.438;2023-07-20T03:18:50;21.20;64.60
33580;DHT22;19909;43.644;-79.438;2023-07-20T03:21:16;21.20;64.30
33580;DHT22;19909;43.644;-79.438;2023-07-20T03:23:43;21.20;64.40
33580;DHT22;19909;43.644;-79.438;2023-07-20T03:26:09;21.30;64.40
33580;DHT22;19909;43.644;-79.438;2023-07-20T03:28:36;21.30;64.80
33580;DHT22;19909;43.644;-79.438;2023-07-20T03:31:02;21.30;64.90
33580;DHT22;19909;43.644;-79.438;2023-07-20T03:33:30;21.30;65.10
33580;DHT22;19909;43.644;-79.438;2023-07-20T03:35:56;21.30;65.00
33580;DHT22;19909;43.644;-79.438;2023-07-20T03:38:24;21.30;65.00
33580;DHT22;19909;43.644;-79.438;2023-07-20T03:43:18;21.40;65.10
33580;DHT22;19909;43.644;-79.438;2023-07-20T03:45:44;21.40;65.20
33580;DHT22;19909;43.644;-79.438;2023-07-20T03:48:23;21.40;65.40
33580;DHT22;19909;43.644;-79.438;2023-07-20T03:50:52;21.40;65.40
33580;DHT22;19909;43.644;-79.438;2023-07-20T03:53:18;21.40;65.50
33580;DHT22;19909;43.644;-79.438;2023-07-20T03:55:49;21.40;65.20
33580;DHT22;19909;43.644;-79.438;2023-07-20T03:58:15;21.50;65.70
33580;DHT22;19909;43.644;-79.438;2023-07-20T04:00:51;21.50;66.20
33580;DHT22;19909;43.644;-79.438;2023-07-20T04:03:18;21.50;66.30
33580;DHT22;19909;43.644;-79.438;2023-07-20T04:05:45;21.50;65.80
33580;DHT22;19909;43.644;-79.438;2023-07-20T04:08:11;21.50;65.80
33580;DHT22;19909;43.644;-79.438;2023-07-20T04:10:38;21.50;65.80
33580;DHT22;19909;43.644;-79.438;2023-07-20T04:13:05;21.50;65.30
33580;DHT22;19909;43.644;-79.438;2023-07-20T04:15:31;21.50;63.80
33580;DHT22;19909;43.644;-79.438;2023-07-20T04:17:57;21.50;62.70
33580;DHT22;19909;43.644;-79.438;2023-07-20T04:20:24;21.40;62.40
33580;DHT22;19909;43.644;-79.438;2023-07-20T04:22:50;21.40;63.30
33580;DHT22;19909;43.644;-79.438;2023-07-20T04:25:18;21.40;64.20
33580;DHT22;19909;43.644;-79.438;2023-07-20T04:27:44;21.30;64.40
33580;DHT22;19909;43.644;-79.438;2023-07-20T04:30:11;21.40;64.80
33580;DHT22;19909;43.644;-79.438;2023-07-20T04:32:38;21.40;65.50
33580;DHT22;19909;43.644;-79.438;2023-07-20T04:35:25;21.40;65.80
33580;DHT22;19909;43.644;-79.438;2023-07-20T04:37:57;21.40;66.00
33580;DHT22;19909;43.644;-79.438;2023-07-20T04:40:23;21.40;66.40
33580;DHT22;19909;43.644;-79.438;2023-07-20T04:42:49;21.40;66.30
33580;DHT22;19909;43.644;-79.438;2023-07-20T04:45:15;21.40;66.60
33580;DHT22;19909;43.644;-79.438;2023-07-20T04:47:41;21.50;67.30
33580;DHT22;19909;43.644;-79.438;2023-07-20T04:50:08;21.50;66.90
33580;DHT22;19909;43.644;-79.438;2023-07-20T04:52:34;21.50;65.50
33580;DHT22;19909;43.644;-79.438;2023-07-20T04:55:00;21.50;63.70
33580;DHT22;19909;43.644;-79.438;2023-07-20T04:57:26;21.40;62.60
33580;DHT22;19909;43.644;-79.438;2023-07-20T04:59:53;21.40;62.80
33580;DHT22;19909;43.644;-79.438;2023-07-20T05:02:19;21.30;63.60
33580;DHT22;19909;43.644;-79.438;2023-07-20T05:04:45;21.30;64.60
33580;DHT22;19909;43.644;-79.438;2023-07-20T05:07:11;21.30;65.00
33580;DHT22;19909;43.644;-79.438;2023-07-20T05:09:37;21.30;65.20
33580;DHT22;19909;43.644;-79.438;2023-07-20T05:12:03;21.30;65.90
33580;DHT22;19909;43.644;-79.438;2023-07-20T05:14:30;21.40;66.10
33580;DHT22;19909;43.644;-79.438;2023-07-20T05:16:56;21.40;66.40
33580;DHT22;19909;43.644;-79.438;2023-07-20T05:19:22;21.40;66.50
33580;DHT22;19909;43.644;-79.438;2023-07-20T05:21:50;21.40;66.40
33580;DHT22;19909;43.644;-79.438;2023-07-20T05:24:16;21.40;66.70
33580;DHT22;19909;43.644;-79.438;2023-07-20T05:26:42;21.40;66.60
33580;DHT22;19909;43.644;-79.438;2023-07-20T05:29:08;21.50;66.70
33580;DHT22;19909;43.644;-79.438;2023-07-20T05:31:34;21.40;67.00
33580;DHT22;19909;43.644;-79.438;2023-07-20T05:34:00;21.50;66.90
33580;DHT22;19909;43.644;-79.438;2023-07-20T05:36:27;21.50;67.10
33580;DHT22;19909;43.644;-79.438;2023-07-20T05:38:53;21.50;67.20
33580;DHT22;19909;43.644;-79.438;2023-07-20T05:41:19;21.50;67.30
33580;DHT22;19909;43.644;-79.438;2023-07-20T05:43:45;21.50;67.10
33580;DHT22;19909;43.644;-79.438;2023-07-20T05:46:11;21.50;67.20
33580;DHT22;19909;43.644;-79.438;2023-07-20T05:48:37;21.60;67.40
33580;DHT22;19909;43.644;-79.438;2023-07-20T05:51:04;21.60;67.80
33580;DHT22;19909;43.644;-79.438;2023-07-20T05:53:30;21.50;66.70
33580;DHT22;19909;43.644;-79.438;2023-07-20T05:55:56;21.60;66.80
33580;DHT22;19909;43.644;-79.438;2023-07-20T05:58:23;21.60;67.20
33580;DHT22;19909;43.644;-79.438;2023-07-20T06:00:50;21.60;67.60
33580;DHT22;19909;43.644;-79.438;2023-07-20T06:03:16;21.60;67.70
33580;DHT22;19909;43.644;-79.438;2023-07-20T06:05:43;21.60;67.60
33580;DHT22;19909;43.644;-79.438;2023-07-20T06:08:09;21.60;67.30
33580;DHT22;19909;43.644;-79.438;2023-07-20T06:10:35;21.60;67.30
33580;DHT22;19909;43.644;-79.438;2023-07-20T06:13:01;21.60;67.40
33580;DHT22;19909;43.644;-79.438;2023-07-20T06:15:31;21.60;67.50
33580;DHT22;19909;43.644;-79.438;2023-07-20T06:17:58;21.60;67.60
33580;DHT22;19909;43.644;-79.438;2023-07-20T06:20:24;21.70;67.60
33580;DHT22;19909;43.644;-79.438;2023-07-20T06:22:50;21.70;67.60
33580;DHT22;19909;43.644;-79.438;2023-07-20T06:25:17;21.70;65.60
33580;DHT22;19909;43.644;-79.438;2023-07-20T06:27:43;21.70;64.30
33580;DHT22;19909;43.644;-79.438;2023-07-20T06:30:10;21.60;64.50
33580;DHT22;19909;43.644;-79.438;2023-07-20T06:32:38;21.60;65.50
33580;DHT22;19909;43.644;-79.438;2023-07-20T06:35:05;21.50;65.90
33580;DHT22;19909;43.644;-79.438;2023-07-20T06:37:31;21.50;66.10
33580;DHT22;19909;43.644;-79.438;2023-07-20T06:39:58;21.50;66.90
33580;DHT22;19909;43.644;-79.438;2023-07-20T06:42:24;21.50;66.90
33580;DHT22;19909;43.644;-79.438;2023-07-20T06:44:50;21.60;66.80
33580;DHT22;19909;43.644;-79.438;2023-07-20T06:47:16;21.60;66.80
33580;DHT22;19909;43.644;-79.438;2023-07-20T06:49:42;21.60;66.80
33580;DHT22;19909;43.644;-79.438;2023-07-20T06:52:09;21.60;67.10
33580;DHT22;19909;43.644;-79.438;2023-07-20T06:54:35;21.60;67.50
33580;DHT22;19909;43.644;-79.438;2023-07-20T06:57:01;21.60;67.80
33580;DHT22;19909;43.644;-79.438;2023-07-20T06:59:27;21.60;67.70
33580;DHT22;19909;43.644;-79.438;2023-07-20T07:01:53;21.60;67.90
33580;DHT22;19909;43.644;-79.438;2023-07-20T07:04:19;21.60;67.70
33580;DHT22;19909;43.644;-79.438;2023-07-20T07:06:46;21.70;67.70
33580;DHT22;19909;43.644;-79.438;2023-07-20T07:09:12;21.70;67.30
33580;DHT22;19909;43.644;-79.438;2023-07-20T07:11:38;21.70;65.20
33580;DHT22;19909;43.644;-79.438;2023-07-20T07:14:04;21.60;64.00
33580;DHT22;19909;43.644;-79.438;2023-07-20T07:16:30;21.60;64.10
33580;DHT22;19909;43.644;-79.438;2023-07-20T07:18:56;21.50;64.90
33580;DHT22;19909;43.644;-79.438;2023-07-20T07:21:23;21.50;65.80
33580;DHT22;19909;43.644;-79.438;2023-07-20T07:23:49;21.50;66.00
33580;DHT22;19909;43.644;-79.438;2023-07-20T07:26:15;21.50;66.90
33580;DHT22;19909;43.644;-79.438;2023-07-20T07:28:41;21.50;67.70
33580;DHT22;19909;43.644;-79.438;2023-07-20T07:31:08;21.50;67.50
33580;DHT22;19909;43.644;-79.438;2023-07-20T07:33:35;21.50;68.00
33580;DHT22;19909;43.644;-79.438;2023-07-20T07:36:01;21.50;68.20
33580;DHT22;19909;43.644;-79.438;2023-07-20T07:38:27;21.60;68.50
33580;DHT22;19909;43.644;-79.438;2023-07-20T07:40:53;21.60;68.60
33580;DHT22;19909;43.644;-79.438;2023-07-20T07:43:19;21.60;68.70
33580;DHT22;19909;43.644;-79.438;2023-07-20T07:45:45;21.60;68.60
33580;DHT22;19909;43.644;-79.438;2023-07-20T07:48:12;21.60;68.60
33580;DHT22;19909;43.644;-79.438;2023-07-20T07:50:39;21.60;68.60
33580;DHT22;19909;43.644;-79.438;2023-07-20T07:53:08;21.60;68.70
33580;DHT22;19909;43.644;-79.438;2023-07-20T07:55:35;21.60;66.30
33580;DHT22;19909;43.644;-79.438;2023-07-20T07:58:01;21.60;64.70
33580;DHT22;19909;43.644;-79.438;2023-07-20T08:00:27;21.60;65.10
33580;DHT22;19909;43.644;-79.438;2023-07-20T08:02:54;21.50;66.10
33580;DHT22;19909;43.644;-79.438;2023-07-20T08:05:20;21.50;67.00
33580;DHT22;19909;43.644;-79.438;2023-07-20T08:07:46;21.50;67.40
33580;DHT22;19909;43.644;-79.438;2023-07-20T08:10:12;21.50;68.10
33580;DHT22;19909;43.644;-79.438;2023-07-20T08:12:38;21.60;68.30
33580;DHT22;19909;43.644;-79.438;2023-07-20T08:15:05;21.60;68.30
33580;DHT22;19909;43.644;-79.438;2023-07-20T08:17:31;21.50;68.60
33580;DHT22;19909;43.644;-79.438;2023-07-20T08:19:57;21.60;68.60
33580;DHT22;19909;43.644;-79.438;2023-07-20T08:22:23;21.60;68.70
33580;DHT22;19909;43.644;-79.438;2023-07-20T08:24:50;21.60;68.80
33580;DHT22;19909;43.644;-79.438;2023-07-20T08:27:16;21.60;68.60
33580;DHT22;19909;43.644;-79.438;2023-07-20T08:29:42;21.60;68.70
33580;DHT22;19909;43.644;-79.438;2023-07-20T08:32:08;21.60;68.90
33580;DHT22;19909;43.644;-79.438;2023-07-20T08:34:34;21.60;68.80
33580;DHT22;19909;43.644;-79.438;2023-07-20T08:37:00;21.70;69.00
33580;DHT22;19909;43.644;-79.438;2023-07-20T08:39:27;21.70;69.10
33580;DHT22;19909;43.644;-79.438;2023-07-20T08:41:54;21.70;69.00
33580;DHT22;19909;43.644;-79.438;2023-07-20T08:44:21;21.70;69.10
33580;DHT22;19909;43.644;-79.438;2023-07-20T08:46:49;21.70;69.10
33580;DHT22;19909;43.644;-79.438;2023-07-20T08:49:17;21.70;68.90
33580;DHT22;19909;43.644;-79.438;2023-07-20T08:51:46;21.70;68.90
33580;DHT22;19909;43.644;-79.438;2023-07-20T08:54:13;21.70;68.70
33580;DHT22;19909;43.644;-79.438;2023-07-20T08:56:41;21.70;69.50
33580;DHT22;19909;43.644;-79.438;2023-07-20T08:59:08;21.70;69.10
33580;DHT22;19909;43.644;-79.438;2023-07-20T09:01:36;21.70;69.20
33580;DHT22;19909;43.644;-79.438;2023-07-20T09:04:05;21.70;69.90
33580;DHT22;19909;43.644;-79.438;2023-07-20T09:06:31;21.70;69.20
33580;DHT22;19909;43.644;-79.438;2023-07-20T09:08:57;21.70;69.00
33580;DHT22;19909;43.644;-79.438;2023-07-20T09:11:24;21.70;69.20
33580;DHT22;19909;43.644;-79.438;2023-07-20T09:14:09;21.70;69.20
33580;DHT22;19909;43.644;-79.438;2023-07-20T09:16:48;21.80;69.10
33580;DHT22;19909;43.644;-79.438;2023-07-20T09:19:16;21.80;69.80
33580;DHT22;19909;43.644;-79.438;2023-07-20T09:21:45;21.80;69.20
33580;DHT22;19909;43.644;-79.438;2023-07-20T09:24:13;21.80;69.00
33580;DHT22;19909;43.644;-79.438;2023-07-20T09:26:42;21.80;69.00
33580;DHT22;19909;43.644;-79.438;2023-07-20T09:29:09;21.80;69.10
33580;DHT22;19909;43.644;-79.438;2023-07-20T09:31:36;21.80;69.10
33580;DHT22;19909;43.644;-79.438;2023-07-20T09:34:02;21.80;69.10
33580;DHT22;19909;43.644;-79.438;2023-07-20T09:36:29;21.80;69.10
33580;DHT22;19909;43.644;-79.438;2023-07-20T09:38:55;21.80;69.10
33580;DHT22;19909;43.644;-79.438;2023-07-20T09:41:22;21.80;69.00
33580;DHT22;19909;43.644;-79.438;2023-07-20T09:43:48;21.80;69.20
33580;DHT22;19909;43.644;-79.438;2023-07-20T09:46:15;21.80;69.10
33580;DHT22;19909;43.644;-79.438;2023-07-20T09:48:54;21.80;69.10
33580;DHT22;19909;43.644;-79.438;2023-07-20T09:51:23;21.80;69.90
33580;DHT22;19909;43.644;-79.438;2023-07-20T09:53:52;21.80;69.00
33580;DHT22;19909;43.644;-79.438;2023-07-20T09:56:22;21.80;68.90
33580;DHT22;19909;43.644;-79.438;2023-07-20T09:58:50;21.80;69.20
33580;DHT22;19909;43.644;-79.438;2023-07-20T10:01:20;21.80;69.10
33580;DHT22;19909;43.644;-79.438;2023-07-20T10:03:51;21.80;69.10
33580;DHT22;19909;43.644;-79.438;2023-07-20T10:06:23;21.80;69.00
33580;DHT22;19909;43.644;-79.438;2023-07-20T10:08:53;21.80;69.20
33580;DHT22;19909;43.644;-79.438;2023-07-20T10:11:22;21.80;69.00
33580;DHT22;19909;43.644;-79.438;2023-07-20T10:13:51;21.80;69.10
33580;DHT22;19909;43.644;-79.438;2023-07-20T10:16:32;21.80;69.80
33580;DHT22;19909;43.644;-79.438;2023-07-20T10:19:13;21.80;69.10
33580;DHT22;19909;43.644;-79.438;2023-07-20T10:21:47;21.80;69.10
33580;DHT22;19909;43.644;-79.438;2023-07-20T10:24:13;21.80;68.90
33580;DHT22;19909;43.644;-79.438;2023-07-20T10:26:40;21.80;68.90
33580;DHT22;19909;43.644;-79.438;2023-07-20T10:29:07;21.80;68.90
33580;DHT22;19909;43.644;-79.438;2023-07-20T10:31:34;21.90;69.00
33580;DHT22;19909;43.644;-79.438;2023-07-20T10:34:01;21.90;69.00
33580;DHT22;19909;43.644;-79.438;2023-07-20T10:36:27;21.80;68.90
33580;DHT22;19909;43.644;-79.438;2023-07-20T10:38:55;21.90;68.90
33580;DHT22;19909;43.644;-79.438;2023-07-20T10:41:28;21.90;68.90
33580;DHT22;19909;43.644;-79.438;2023-07-20T10:44:02;21.90;68.90
33580;DHT22;19909;43.644;-79.438;2023-07-20T10:49:05;21.90;68.90
33580;DHT22;19909;43.644;-79.438;2023-07-20T10:54:08;21.90;68.70
33580;DHT22;19909;43.644;-79.438;2023-07-20T10:56:35;21.90;68.50
33580;DHT22;19909;43.644;-79.438;2023-07-20T10:59:02;21.90;68.60
33580;DHT22;19909;43.644;-79.438;2023-07-20T11:01:44;21.90;68.70
33580;DHT22;19909;43.644;-79.438;2023-07-20T11:04:11;21.90;68.60
33580;DHT22;19909;43.644;-79.438;2023-07-20T11:06:37;21.90;68.70
33580;DHT22;19909;43.644;-79.438;2023-07-20T11:09:09;21.90;68.60
33580;DHT22;19909;43.644;-79.438;2023-07-20T11:11:47;21.90;68.70
33580;DHT22;19909;43.644;-79.438;2023-07-20T11:14:24;21.90;68.60
33580;DHT22;19909;43.644;-79.438;2023-07-20T11:16:52;21.90;68.60
33580;DHT22;19909;43.644;-79.438;2023-07-20T11:19:22;21.90;68.60
33580;DHT22;19909;43.644;-79.438;2023-07-20T11:21:51;21.90;66.40
33580;DHT22;19909;43.644;-79.438;2023-07-20T11:24:18;21.80;65.40
33580;DHT22;19909;43.644;-79.438;2023-07-20T11:26:46;21.80;65.70
33580;DHT22;19909;43.644;-79.438;2023-07-20T11:29:13;21.70;67.10
33580;DHT22;19909;43.644;-79.438;2023-07-20T11:31:40;21.70;67.70
33580;DHT22;19909;43.644;-79.438;2023-07-20T11:34:14;21.70;67.90
33580;DHT22;19909;43.644;-79.438;2023-07-20T11:36:42;21.70;68.10
33580;DHT22;19909;43.644;-79.438;2023-07-20T11:39:10;21.70;68.20
33580;DHT22;19909;43.644;-79.438;2023-07-20T11:41:36;21.70;68.30
33580;DHT22;19909;43.644;-79.438;2023-07-20T11:44:04;21.70;68.10
33580;DHT22;19909;43.644;-79.438;2023-07-20T11:46:34;21.80;68.20
33580;DHT22;19909;43.644;-79.438;2023-07-20T11:49:01;21.80;68.40
33580;DHT22;19909;43.644;-79.438;2023-07-20T11:51:30;21.80;68.20
33580;DHT22;19909;43.644;-79.438;2023-07-20T11:53:57;21.80;68.30
33580;DHT22;19909;43.644;-79.438;2023-07-20T11:56:25;21.80;68.20
33580;DHT22;19909;43.644;-79.438;2023-07-20T11:58:55;21.80;68.20
33580;DHT22;19909;43.644;-79.438;2023-07-20T12:01:23;21.80;67.80
33580;DHT22;19909;43.644;-79.438;2023-07-20T12:03:49;21.80;66.40
33580;DHT22;19909;43.644;-79.438;2023-07-20T12:06:16;21.90;65.10
33580;DHT22;19909;43.644;-79.438;2023-07-20T12:08:43;21.80;64.90
33580;DHT22;19909;43.644;-79.438;2023-07-20T12:11:10;21.80;65.70
33580;DHT22;19909;43.644;-79.438;2023-07-20T12:13:43;21.80;66.80
33580;DHT22;19909;43.644;-79.438;2023-07-20T12:16:11;21.80;67.10
33580;DHT22;19909;43.644;-79.438;2023-07-20T12:18:39;21.70;67.30
33580;DHT22;19909;43.644;-79.438;2023-07-20T12:21:06;21.80;67.60
33580;DHT22;19909;43.644;-79.438;2023-07-20T12:23:38;21.80;67.40
33580;DHT22;19909;43.644;-79.438;2023-07-20T12:26:07;21.80;67.40
33580;DHT22;19909;43.644;-79.438;2023-07-20T12:28:39;21.80;67.40
33580;DHT22;19909;43.644;-79.438;2023-07-20T12:31:09;21.80;67.40
33580;DHT22;19909;43.644;-79.438;2023-07-20T12:33:37;21.80;66.60
33580;DHT22;19909;43.644;-79.438;2023-07-20T12:36:04;21.90;65.30
33580;DHT22;19909;43.644;-79.438;2023-07-20T12:38:30;21.80;64.20
33580;DHT22;19909;43.644;-79.438;2023-07-20T12:41:01;21.70;64.40
33580;DHT22;19909;43.644;-79.438;2023-07-20T12:43:27;21.70;65.50
33580;DHT22;19909;43.644;-79.438;2023-07-20T12:45:54;21.70;66.20
33580;DHT22;19909;43.644;-79.438;2023-07-20T12:48:21;21.70;66.40
33580;DHT22;19909;43.644;-79.438;2023-07-20T12:50:47;21.70;66.50
33580;DHT22;19909;43.644;-79.438;2023-07-20T12:53:16;21.80;67.20
33580;DHT22;19909;43.644;-79.438;2023-07-20T12:55:42;21.70;67.50
33580;DHT22;19909;43.644;-79.438;2023-07-20T12:58:09;21.80;67.50
33580;DHT22;19909;43.644;-79.438;2023-07-20T13:00:35;21.80;67.00
33580;DHT22;19909;43.644;-79.438;2023-07-20T13:03:02;21.80;67.00
33580;DHT22;19909;43.644;-79.438;2023-07-20T13:05:31;21.70;67.40
33580;DHT22;19909;43.644;-79.438;2023-07-20T13:07:58;21.80;67.30
33580;DHT22;19909;43.644;-79.438;2023-07-20T13:10:24;21.80;67.20
33580;DHT22;19909;43.644;-79.438;2023-07-20T13:12:50;21.80;67.30
33580;DHT22;19909;43.644;-79.438;2023-07-20T13:15:17;21.80;67.50
33580;DHT22;19909;43.644;-79.438;2023-07-20T13:17:44;21.80;65.60
33580;DHT22;19909;43.644;-79.438;2023-07-20T13:20:12;21.80;64.40
33580;DHT22;19909;43.644;-79.438;2023-07-20T13:22:38;21.80;63.70
33580;DHT22;19909;43.644;-79.438;2023-07-20T13:25:05;21.70;64.30
33580;DHT22;19909;43.644;-79.438;2023-07-20T13:27:32;21.70;65.30
33580;DHT22;19909;43.644;-79.438;2023-07-20T13:29:59;21.60;66.00
33580;DHT22;19909;43.644;-79.438;2023-07-20T13:32:26;21.60;66.50
33580;DHT22;19909;43.644;-79.438;2023-07-20T13:34:53;21.70;66.70
33580;DHT22;19909;43.644;-79.438;2023-07-20T13:37:19;21.70;67.00
33580;DHT22;19909;43.644;-79.438;2023-07-20T13:39:45;21.70;67.30
33580;DHT22;19909;43.644;-79.438;2023-07-20T13:42:11;21.70;66.80
33580;DHT22;19909;43.644;-79.438;2023-07-20T13:44:38;21.70;66.90
33580;DHT22;19909;43.644;-79.438;2023-07-20T13:47:05;21.70;66.80
33580;DHT22;19909;43.644;-79.438;2023-07-20T13:49:31;21.70;66.80
33580;DHT22;19909;43.644;-79.438;2023-07-20T13:51:58;21.80;67.00
33580;DHT22;19909;43.644;-79.438;2023-07-20T13:54:25;21.80;66.20
33580;DHT22;19909;43.644;-79.438;2023-07-20T13:56:51;21.80;64.80
33580;DHT22;19909;43.644;-79.438;2023-07-20T13:59:20;21.80;63.90
33580;DHT22;19909;43.644;-79.438;2023-07-20T14:01:46;21.70;64.40
33580;DHT22;19909;43.644;-79.438;2023-07-20T14:04:13;21.70;65.80
33580;DHT22;19909;43.644;-79.438;2023-07-20T14:06:39;21.70;66.30
33580;DHT22;19909;43.644;-79.438;2023-07-20T14:09:05;21.70;66.20
33580;DHT22;19909;43.644;-79.438;2023-07-20T14:11:31;21.70;66.20
33580;DHT22;19909;43.644;-79.438;2023-07-20T14:13:57;21.70;66.40
33580;DHT22;19909;43.644;-79.438;2023-07-20T14:16:26;21.70;66.30
33580;DHT22;19909;43.644;-79.438;2023-07-20T14:18:52;21.80;66.50
33580;DHT22;19909;43.644;-79.438;2023-07-20T14:21:20;21.80;66.50
33580;DHT22;19909;43.644;-79.438;2023-07-20T14:23:50;21.80;66.70
33580;DHT22;19909;43.644;-79.438;2023-07-20T14:26:16;21.80;66.50
33580;DHT22;19909;43.644;-79.438;2023-07-20T14:28:43;21.80;64.50
33580;DHT22;19909;43.644;-79.438;2023-07-20T14:31:09;21.80;63.50
33580;DHT22;19909;43.644;-79.438;2023-07-20T14:33:35;21.80;64.30
33580;DHT22;19909;43.644;-79.438;2023-07-20T14:36:02;21.80;65.70
33580;DHT22;19909;43.644;-79.438;2023-07-20T14:38:30;21.70;65.60
33580;DHT22;19909;43.644;-79.438;2023-07-20T14:40:56;21.70;66.50
33580;DHT22;19909;43.644;-79.438;2023-07-20T14:43:23;21.80;66.90
33580;DHT22;19909;43.644;-79.438;2023-07-20T14:45:49;21.80;66.90
33580;DHT22;19909;43.644;-79.438;2023-07-20T14:48:15;21.80;66.70
33580;DHT22;19909;43.644;-79.438;2023-07-20T14:50:41;21.80;66.50
33580;DHT22;19909;43.644;-79.438;2023-07-20T14:53:12;21.80;66.70
33580;DHT22;19909;43.644;-79.438;2023-07-20T14:55:38;21.80;64.90
33580;DHT22;19909;43.644;-79.438;2023-07-20T14:58:04;21.80;63.90
33580;DHT22;19909;43.644;-79.438;2023-07-20T15:00:30;21.80;63.90
33580;DHT22;19909;43.644;-79.438;2023-07-20T15:02:56;21.70;64.70
33580;DHT22;19909;43.644;-79.438;2023-07-20T15:05:23;21.70;65.50
33580;DHT22;19909;43.644;-79.438;2023-07-20T15:07:50;21.70;66.00
33580;DHT22;19909;43.644;-79.438;2023-07-20T15:10:17;21.70;66.10
33580;DHT22;19909;43.644;-79.438;2023-07-20T15:12:43;21.70;66.80
33580;DHT22;19909;43.644;-79.438;2023-07-20T15:15:11;21.80;66.60
33580;DHT22;19909;43.644;-79.438;2023-07-20T15:17:39;21.80;66.70
33580;DHT22;19909;43.644;-79.438;2023-07-20T15:20:07;21.80;66.60